sensor_id;sensor_type;location;lat;lon;timestamp;P1;durP1;ratioP1;P2;durP2;ratioP2
53875;SDS011;39789;53.216;5.624;2022-08-01T00:01:22;5.63;;;3.35;;
53875;SDS011;39789;53.216;5.624;2022-08-01T00:03:47;6.38;;;3.00;;
53875;SDS011;39789;53.216;5.624;2022-08-01T00:06:13;9.63;;;3.03;;
53875;SDS011;39789;53.216;5.624;2022-08-01T00:08:38;6.28;;;3.47;;
53875;SDS011;39789;53.216;5.624;2022-08-01T00:11:04;8.00;;;3.55;;
53875;SDS011;39789;53.216;5.624;2022-08-01T00:13:30;8.70;;;4.10;;
53875;SDS011;39789;53.216;5.624;2022-08-01T00:15:55;4.93;;;3.97;;
53875;SDS011;39789;53.216;5.624;2022-08-01T00:18:21;6.25;;;3.95;;
53875;SDS011;39789;53.216;5.624;2022-08-01T00:20:46;10.65;;;4.30;;
53875;SDS011;39789;53.216;5.624;2022-08-01T00:23:12;8.23;;;3.95;;
53875;SDS011;39789;53.216;5.624;2022-08-01T00:25:38;8.13;;;4.28;;
53875;SDS011;39789;53.216;5.624;2022-08-01T00:28:03;6.65;;;3.90;;
53875;SDS011;39789;53.216;5.624;2022-08-01T00:30:33;8.77;;;3.90;;
53875;SDS011;39789;53.216;5.624;2022-08-01T00:32:59;6.35;;;4.15;;
53875;SDS011;39789;53.216;5.624;2022-08-01T00:35:25;7.25;;;4.05;;
53875;SDS011;39789;53.216;5.624;2022-08-01T00:37:50;7.43;;;3.35;;
53875;SDS011;39789;53.216;5.624;2022-08-01T00:40:16;5.30;;;3.17;;
53875;SDS011;39789;53.216;5.624;2022-08-01T00:42:42;5.43;;;3.55;;
53875;SDS011;39789;53.216;5.624;2022-08-01T00:45:08;5.65;;;3.17;;
53875;SDS011;39789;53.216;5.624;2022-08-01T00:47:33;6.28;;;2.78;;
53875;SDS011;39789;53.216;5.624;2022-08-01T00:49:59;5.18;;;3.10;;
53875;SDS011;39789;53.216;5.624;2022-08-01T00:52:25;7.10;;;3.17;;
53875;SDS011;39789;53.216;5.624;2022-08-01T00:54:51;5.57;;;2.70;;
53875;SDS011;39789;53.216;5.624;2022-08-01T00:57:19;4.75;;;2.55;;
53875;SDS011;39789;53.216;5.624;2022-08-01T00:59:46;6.68;;;2.70;;
53875;SDS011;39789;53.216;5.624;2022-08-01T01:02:12;3.28;;;2.35;;
53875;SDS011;39789;53.216;5.624;2022-08-01T01:04:38;4.93;;;2.58;;
53875;SDS011;39789;53.216;5.624;2022-08-01T01:07:21;5.50;;;3.30;;
53875;SDS011;39789;53.216;5.624;2022-08-01T01:10:06;5.22;;;2.38;;
53875;SDS011;39789;53.216;5.624;2022-08-01T01:12:38;8.35;;;2.30;;
53875;SDS011;39789;53.216;5.624;2022-08-01T01:15:10;6.68;;;2.53;;
53875;SDS011;39789;53.216;5.624;2022-08-01T01:17:45;12.25;;;3.17;;
53875;SDS011;39789;53.216;5.624;2022-08-01T01:20:17;8.35;;;2.97;;
53875;SDS011;39789;53.216;5.624;2022-08-01T01:25:19;10.95;;;4.28;;
53875;SDS011;39789;53.216;5.624;2022-08-01T01:30:44;11.95;;;3.47;;
53875;SDS011;39789;53.216;5.624;2022-08-01T01:33:13;10.80;;;4.70;;
53875;SDS011;39789;53.216;5.624;2022-08-01T01:35:42;10.20;;;4.70;;
53875;SDS011;39789;53.216;5.624;2022-08-01T01:38:15;14.75;;;3.70;;
53875;SDS011;39789;53.216;5.624;2022-08-01T01:40:45;14.45;;;4.40;;
53875;SDS011;39789;53.216;5.624;2022-08-01T01:43:12;11.48;;;3.47;;
53875;SDS011;39789;53.216;5.624;2022-08-01T01:45:40;11.38;;;4.28;;
53875;SDS011;39789;53.216;5.624;2022-08-01T01:48:07;10.40;;;4.00;;
53875;SDS011;39789;53.216;5.624;2022-08-01T01:50:35;14.20;;;3.65;;
53875;SDS011;39789;53.216;5.624;2022-08-01T01:53:02;10.90;;;3.30;;
53875;SDS011;39789;53.216;5.624;2022-08-01T01:55:30;10.63;;;3.83;;
53875;SDS011;39789;53.216;5.624;2022-08-01T01:57:56;14.20;;;3.30;;
53875;SDS011;39789;53.216;5.624;2022-08-01T02:00:24;10.40;;;3.05;;
53875;SDS011;39789;53.216;5.624;2022-08-01T02:02:51;14.15;;;4.13;;
53875;SDS011;39789;53.216;5.624;2022-08-01T02:05:19;9.93;;;3.88;;
53875;SDS011;39789;53.216;5.624;2022-08-01T02:07:46;9.00;;;3.45;;
53875;SDS011;39789;53.216;5.624;2022-08-01T02:10:14;13.50;;;3.90;;
53875;SDS011;39789;53.216;5.624;2022-08-01T02:12:42;17.02;;;4.35;;
53875;SDS011;39789;53.216;5.624;2022-08-01T02:15:10;10.18;;;4.80;;
53875;SDS011;39789;53.216;5.624;2022-08-01T02:17:43;12.07;;;3.88;;
53875;SDS011;39789;53.216;5.624;2022-08-01T02:20:11;7.93;;;3.00;;
53875;SDS011;39789;53.216;5.624;2022-08-01T02:22:46;13.40;;;3.92;;
53875;SDS011;39789;53.216;5.624;2022-08-01T02:25:34;9.80;;;4.10;;
53875;SDS011;39789;53.216;5.624;2022-08-01T02:28:04;7.47;;;3.50;;
53875;SDS011;39789;53.216;5.624;2022-08-01T02:30:34;7.32;;;2.95;;
53875;SDS011;39789;53.216;5.624;2022-08-01T02:33:17;12.68;;;3.80;;
53875;SDS011;39789;53.216;5.624;2022-08-01T02:35:47;7.38;;;3.30;;
53875;SDS011;39789;53.216;5.624;2022-08-01T02:38:16;8.18;;;3.17;;
53875;SDS011;39789;53.216;5.624;2022-08-01T02:40:45;7.72;;;3.50;;
53875;SDS011;39789;53.216;5.624;2022-08-01T02:43:12;8.15;;;2.97;;
53875;SDS011;39789;53.216;5.624;2022-08-01T02:45:43;9.50;;;3.72;;
53875;SDS011;39789;53.216;5.624;2022-08-01T02:48:13;10.93;;;4.35;;
53875;SDS011;39789;53.216;5.624;2022-08-01T02:50:42;8.98;;;3.78;;
53875;SDS011;39789;53.216;5.624;2022-08-01T02:53:13;9.95;;;3.75;;
53875;SDS011;39789;53.216;5.624;2022-08-01T02:55:42;12.90;;;3.65;;
53875;SDS011;39789;53.216;5.624;2022-08-01T02:58:12;12.90;;;4.00;;
53875;SDS011;39789;53.216;5.624;2022-08-01T03:00:40;11.48;;;3.72;;
53875;SDS011;39789;53.216;5.624;2022-08-01T03:03:08;12.50;;;3.58;;
53875;SDS011;39789;53.216;5.624;2022-08-01T03:05:35;15.82;;;4.10;;
53875;SDS011;39789;53.216;5.624;2022-08-01T03:08:02;11.30;;;2.88;;
53875;SDS011;39789;53.216;5.624;2022-08-01T03:10:29;8.68;;;3.22;;
53875;SDS011;39789;53.216;5.624;2022-08-01T03:12:57;12.85;;;4.07;;
53875;SDS011;39789;53.216;5.624;2022-08-01T03:15:26;10.38;;;3.55;;
53875;SDS011;39789;53.216;5.624;2022-08-01T03:17:52;19.17;;;5.05;;
53875;SDS011;39789;53.216;5.624;2022-08-01T03:20:20;14.27;;;4.07;;
53875;SDS011;39789;53.216;5.624;2022-08-01T03:22:50;8.02;;;3.05;;
53875;SDS011;39789;53.216;5.624;2022-08-01T03:25:18;11.85;;;3.30;;
53875;SDS011;39789;53.216;5.624;2022-08-01T03:27:47;11.27;;;3.35;;
53875;SDS011;39789;53.216;5.624;2022-08-01T03:30:19;10.93;;;3.28;;
53875;SDS011;39789;53.216;5.624;2022-08-01T03:32:46;14.00;;;4.65;;
53875;SDS011;39789;53.216;5.624;2022-08-01T03:35:11;12.50;;;3.80;;
53875;SDS011;39789;53.216;5.624;2022-08-01T03:40:09;12.15;;;3.40;;
53875;SDS011;39789;53.216;5.624;2022-08-01T03:45:31;12.93;;;3.58;;
53875;SDS011;39789;53.216;5.624;2022-08-01T03:48:02;10.63;;;3.78;;
53875;SDS011;39789;53.216;5.624;2022-08-01T03:50:39;13.73;;;3.75;;
53875;SDS011;39789;53.216;5.624;2022-08-01T03:53:08;11.18;;;3.17;;
53875;SDS011;39789;53.216;5.624;2022-08-01T03:55:35;9.15;;;3.10;;
53875;SDS011;39789;53.216;5.624;2022-08-01T03:58:03;10.20;;;2.92;;
53875;SDS011;39789;53.216;5.624;2022-08-01T04:00:29;6.57;;;3.15;;
53875;SDS011;39789;53.216;5.624;2022-08-01T04:02:55;10.48;;;3.33;;
53875;SDS011;39789;53.216;5.624;2022-08-01T04:05:21;9.45;;;3.75;;
53875;SDS011;39789;53.216;5.624;2022-08-01T04:07:48;13.43;;;3.50;;
53875;SDS011;39789;53.216;5.624;2022-08-01T04:10:20;13.10;;;4.05;;
53875;SDS011;39789;53.216;5.624;2022-08-01T04:12:47;17.33;;;3.80;;
53875;SDS011;39789;53.216;5.624;2022-08-01T04:15:13;13.85;;;3.88;;
53875;SDS011;39789;53.216;5.624;2022-08-01T04:17:39;11.00;;;3.40;;
53875;SDS011;39789;53.216;5.624;2022-08-01T04:20:04;14.60;;;3.67;;
53875;SDS011;39789;53.216;5.624;2022-08-01T04:22:30;17.58;;;4.30;;
53875;SDS011;39789;53.216;5.624;2022-08-01T04:24:57;13.82;;;4.15;;
53875;SDS011;39789;53.216;5.624;2022-08-01T04:27:25;14.45;;;3.55;;
53875;SDS011;39789;53.216;5.624;2022-08-01T04:29:54;9.52;;;4.00;;
53875;SDS011;39789;53.216;5.624;2022-08-01T04:32:22;10.13;;;2.80;;
53875;SDS011;39789;53.216;5.624;2022-08-01T04:34:50;14.80;;;3.88;;
53875;SDS011;39789;53.216;5.624;2022-08-01T04:37:20;10.60;;;3.05;;
53875;SDS011;39789;53.216;5.624;2022-08-01T04:39:48;13.80;;;4.93;;
53875;SDS011;39789;53.216;5.624;2022-08-01T04:42:16;10.48;;;3.38;;
53875;SDS011;39789;53.216;5.624;2022-08-01T04:44:42;32.95;;;5.00;;
53875;SDS011;39789;53.216;5.624;2022-08-01T04:47:08;13.23;;;3.88;;
53875;SDS011;39789;53.216;5.624;2022-08-01T04:49:34;17.25;;;4.53;;
53875;SDS011;39789;53.216;5.624;2022-08-01T04:52:01;12.77;;;3.45;;
53875;SDS011;39789;53.216;5.624;2022-08-01T04:54:27;11.07;;;3.30;;
53875;SDS011;39789;53.216;5.624;2022-08-01T04:56:54;13.27;;;4.03;;
53875;SDS011;39789;53.216;5.624;2022-08-01T04:59:25;9.45;;;3.30;;
53875;SDS011;39789;53.216;5.624;2022-08-01T05:02:08;12.50;;;3.40;;
53875;SDS011;39789;53.216;5.624;2022-08-01T05:04:36;14.07;;;3.45;;
53875;SDS011;39789;53.216;5.624;2022-08-01T05:07:02;10.88;;;3.42;;
53875;SDS011;39789;53.216;5.624;2022-08-01T05:09:28;13.88;;;3.85;;
53875;SDS011;39789;53.216;5.624;2022-08-01T05:11:53;14.63;;;5.10;;
53875;SDS011;39789;53.216;5.624;2022-08-01T05:14:19;15.85;;;4.30;;
53875;SDS011;39789;53.216;5.624;2022-08-01T05:16:46;9.45;;;3.30;;
53875;SDS011;39789;53.216;5.624;2022-08-01T05:19:11;10.80;;;3.40;;
53875;SDS011;39789;53.216;5.624;2022-08-01T05:21:37;10.52;;;3.33;;
53875;SDS011;39789;53.216;5.624;2022-08-01T05:24:03;11.82;;;3.40;;
53875;SDS011;39789;53.216;5.624;2022-08-01T05:26:30;16.80;;;4.50;;
53875;SDS011;39789;53.216;5.624;2022-08-01T05:28:55;11.05;;;3.53;;
53875;SDS011;39789;53.216;5.624;2022-08-01T05:31:21;10.00;;;3.80;;
53875;SDS011;39789;53.216;5.624;2022-08-01T05:33:47;10.10;;;3.50;;
53875;SDS011;39789;53.216;5.624;2022-08-01T05:36:12;14.43;;;4.68;;
53875;SDS011;39789;53.216;5.624;2022-08-01T05:38:38;10.27;;;3.47;;
53875;SDS011;39789;53.216;5.624;2022-08-01T05:41:04;10.73;;;3.05;;
53875;SDS011;39789;53.216;5.624;2022-08-01T05:43:29;10.38;;;3.40;;
53875;SDS011;39789;53.216;5.624;2022-08-01T05:45:55;16.13;;;2.95;;
53875;SDS011;39789;53.216;5.624;2022-08-01T05:48:21;15.27;;;3.72;;
53875;SDS011;39789;53.216;5.624;2022-08-01T05:50:46;12.35;;;3.20;;
53875;SDS011;39789;53.216;5.624;2022-08-01T05:53:12;10.23;;;2.92;;
53875;SDS011;39789;53.216;5.624;2022-08-01T05:55:38;8.18;;;2.67;;
53875;SDS011;39789;53.216;5.624;2022-08-01T05:58:04;6.65;;;2.72;;
53875;SDS011;39789;53.216;5.624;2022-08-01T06:00:30;9.43;;;2.50;;
53875;SDS011;39789;53.216;5.624;2022-08-01T06:02:56;9.43;;;2.97;;
53875;SDS011;39789;53.216;5.624;2022-08-01T06:05:22;6.68;;;2.15;;
53875;SDS011;39789;53.216;5.624;2022-08-01T06:07:48;8.15;;;2.70;;
53875;SDS011;39789;53.216;5.624;2022-08-01T06:10:14;9.18;;;3.20;;
53875;SDS011;39789;53.216;5.624;2022-08-01T06:15:12;8.20;;;2.83;;
53875;SDS011;39789;53.216;5.624;2022-08-01T06:17:38;10.52;;;3.33;;
53875;SDS011;39789;53.216;5.624;2022-08-01T06:20:04;10.38;;;3.58;;
53875;SDS011;39789;53.216;5.624;2022-08-01T06:22:32;11.93;;;3.42;;
53875;SDS011;39789;53.216;5.624;2022-08-01T06:24:58;13.68;;;3.00;;
53875;SDS011;39789;53.216;5.624;2022-08-01T06:27:23;10.10;;;3.05;;
53875;SDS011;39789;53.216;5.624;2022-08-01T06:29:52;6.53;;;2.78;;
53875;SDS011;39789;53.216;5.624;2022-08-01T06:32:21;7.10;;;2.60;;
53875;SDS011;39789;53.216;5.624;2022-08-01T06:34:51;7.40;;;2.78;;
53875;SDS011;39789;53.216;5.624;2022-08-01T06:37:17;10.68;;;2.83;;
53875;SDS011;39789;53.216;5.624;2022-08-01T06:39:43;16.38;;;8.00;;
53875;SDS011;39789;53.216;5.624;2022-08-01T06:42:12;8.55;;;2.45;;
53875;SDS011;39789;53.216;5.624;2022-08-01T06:44:39;9.43;;;2.60;;
53875;SDS011;39789;53.216;5.624;2022-08-01T06:47:05;5.72;;;2.42;;
53875;SDS011;39789;53.216;5.624;2022-08-01T06:49:31;8.43;;;2.35;;
53875;SDS011;39789;53.216;5.624;2022-08-01T06:51:56;8.75;;;2.72;;
53875;SDS011;39789;53.216;5.624;2022-08-01T06:54:22;8.38;;;2.35;;
53875;SDS011;39789;53.216;5.624;2022-08-01T06:56:48;12.23;;;3.13;;
53875;SDS011;39789;53.216;5.624;2022-08-01T06:59:13;7.43;;;2.47;;
53875;SDS011;39789;53.216;5.624;2022-08-01T07:01:39;6.38;;;2.10;;
53875;SDS011;39789;53.216;5.624;2022-08-01T07:04:05;7.45;;;2.25;;
53875;SDS011;39789;53.216;5.624;2022-08-01T07:06:32;12.30;;;3.10;;
53875;SDS011;39789;53.216;5.624;2022-08-01T07:08:57;10.52;;;2.35;;
53875;SDS011;39789;53.216;5.624;2022-08-01T07:11:23;5.97;;;2.72;;
53875;SDS011;39789;53.216;5.624;2022-08-01T07:13:49;9.70;;;2.40;;
53875;SDS011;39789;53.216;5.624;2022-08-01T07:16:15;8.27;;;3.10;;
53875;SDS011;39789;53.216;5.624;2022-08-01T07:18:41;9.73;;;2.40;;
53875;SDS011;39789;53.216;5.624;2022-08-01T07:21:07;9.80;;;3.25;;
53875;SDS011;39789;53.216;5.624;2022-08-01T07:23:33;6.90;;;2.88;;
53875;SDS011;39789;53.216;5.624;2022-08-01T07:25:59;7.45;;;2.58;;
53875;SDS011;39789;53.216;5.624;2022-08-01T07:28:26;6.50;;;2.10;;
53875;SDS011;39789;53.216;5.624;2022-08-01T07:30:53;7.10;;;2.33;;
53875;SDS011;39789;53.216;5.624;2022-08-01T07:33:18;9.27;;;3.20;;
53875;SDS011;39789;53.216;5.624;2022-08-01T07:35:44;6.65;;;2.50;;
53875;SDS011;39789;53.216;5.624;2022-08-01T07:38:10;10.15;;;2.38;;
53875;SDS011;39789;53.216;5.624;2022-08-01T07:43:06;11.98;;;2.50;;
53875;SDS011;39789;53.216;5.624;2022-08-01T07:45:32;8.38;;;2.92;;
53875;SDS011;39789;53.216;5.624;2022-08-01T07:48:07;8.18;;;2.47;;
53875;SDS011;39789;53.216;5.624;2022-08-01T07:50:33;9.98;;;2.88;;
53875;SDS011;39789;53.216;5.624;2022-08-01T07:52:59;7.88;;;2.20;;
53875;SDS011;39789;53.216;5.624;2022-08-01T07:55:25;9.48;;;2.10;;
53875;SDS011;39789;53.216;5.624;2022-08-01T07:57:51;8.02;;;2.85;;
53875;SDS011;39789;53.216;5.624;2022-08-01T08:00:17;7.15;;;2.25;;
53875;SDS011;39789;53.216;5.624;2022-08-01T08:02:43;6.22;;;2.13;;
53875;SDS011;39789;53.216;5.624;2022-08-01T08:05:10;6.40;;;2.00;;
53875;SDS011;39789;53.216;5.624;2022-08-01T08:07:36;6.90;;;1.88;;
53875;SDS011;39789;53.216;5.624;2022-08-01T08:10:03;6.85;;;2.05;;
53875;SDS011;39789;53.216;5.624;2022-08-01T08:12:29;8.40;;;2.33;;
53875;SDS011;39789;53.216;5.624;2022-08-01T08:14:55;6.13;;;1.98;;
53875;SDS011;39789;53.216;5.624;2022-08-01T08:17:25;9.15;;;2.22;;
53875;SDS011;39789;53.216;5.624;2022-08-01T08:19:51;11.30;;;2.83;;
53875;SDS011;39789;53.216;5.624;2022-08-01T08:22:17;8.63;;;2.53;;
53875;SDS011;39789;53.216;5.624;2022-08-01T08:24:43;6.22;;;2.00;;
53875;SDS011;39789;53.216;5.624;2022-08-01T08:27:08;8.65;;;3.00;;
53875;SDS011;39789;53.216;5.624;2022-08-01T08:29:34;7.65;;;2.42;;
53875;SDS011;39789;53.216;5.624;2022-08-01T08:32:00;7.93;;;2.30;;
53875;SDS011;39789;53.216;5.624;2022-08-01T08:37:28;6.13;;;1.75;;
53875;SDS011;39789;53.216;5.624;2022-08-01T08:39:53;8.80;;;2.15;;
53875;SDS011;39789;53.216;5.624;2022-08-01T08:42:19;6.13;;;1.85;;
53875;SDS011;39789;53.216;5.624;2022-08-01T08:44:45;6.93;;;1.70;;
53875;SDS011;39789;53.216;5.624;2022-08-01T08:47:11;6.10;;;1.60;;
53875;SDS011;39789;53.216;5.624;2022-08-01T08:49:38;7.50;;;2.30;;
53875;SDS011;39789;53.216;5.624;2022-08-01T08:52:04;8.25;;;2.28;;
53875;SDS011;39789;53.216;5.624;2022-08-01T08:54:30;4.97;;;2.00;;
53875;SDS011;39789;53.216;5.624;2022-08-01T08:56:59;4.53;;;2.17;;
53875;SDS011;39789;53.216;5.624;2022-08-01T08:59:25;10.60;;;2.88;;
53875;SDS011;39789;53.216;5.624;2022-08-01T09:01:51;4.90;;;1.77;;
53875;SDS011;39789;53.216;5.624;2022-08-01T09:04:17;5.75;;;1.90;;
53875;SDS011;39789;53.216;5.624;2022-08-01T09:06:48;7.18;;;2.00;;
53875;SDS011;39789;53.216;5.624;2022-08-01T09:09:14;5.00;;;1.55;;
53875;SDS011;39789;53.216;5.624;2022-08-01T09:11:39;4.30;;;1.52;;
53875;SDS011;39789;53.216;5.624;2022-08-01T09:14:09;5.57;;;1.92;;
53875;SDS011;39789;53.216;5.624;2022-08-01T09:16:40;7.70;;;1.60;;
53875;SDS011;39789;53.216;5.624;2022-08-01T09:22:23;8.73;;;2.05;;
53875;SDS011;39789;53.216;5.624;2022-08-01T09:25:01;7.03;;;1.83;;
53875;SDS011;39789;53.216;5.624;2022-08-01T09:27:35;3.60;;;1.63;;
53875;SDS011;39789;53.216;5.624;2022-08-01T09:30:08;4.90;;;1.60;;
53875;SDS011;39789;53.216;5.624;2022-08-01T09:32:36;5.00;;;1.48;;
53875;SDS011;39789;53.216;5.624;2022-08-01T09:35:24;9.00;;;1.80;;
53875;SDS011;39789;53.216;5.624;2022-08-01T09:41:05;6.43;;;1.60;;
53875;SDS011;39789;53.216;5.624;2022-08-01T09:43:32;3.70;;;1.60;;
53875;SDS011;39789;53.216;5.624;2022-08-01T09:45:59;5.03;;;1.52;;
53875;SDS011;39789;53.216;5.624;2022-08-01T09:48:29;5.72;;;2.30;;
53875;SDS011;39789;53.216;5.624;2022-08-01T09:50:57;6.88;;;2.00;;
53875;SDS011;39789;53.216;5.624;2022-08-01T09:53:23;8.05;;;2.33;;
53875;SDS011;39789;53.216;5.624;2022-08-01T09:55:49;6.38;;;2.10;;
53875;SDS011;39789;53.216;5.624;2022-08-01T09:58:17;6.32;;;1.90;;
53875;SDS011;39789;53.216;5.624;2022-08-01T10:00:44;4.25;;;1.50;;
53875;SDS011;39789;53.216;5.624;2022-08-01T10:03:25;6.28;;;1.65;;
53875;SDS011;39789;53.216;5.624;2022-08-01T10:05:52;4.40;;;1.58;;
53875;SDS011;39789;53.216;5.624;2022-08-01T10:08:26;4.65;;;1.20;;
53875;SDS011;39789;53.216;5.624;2022-08-01T10:11:08;4.60;;;1.40;;
53875;SDS011;39789;53.216;5.624;2022-08-01T10:13:36;7.75;;;1.75;;
53875;SDS011;39789;53.216;5.624;2022-08-01T10:16:02;4.93;;;1.67;;
53875;SDS011;39789;53.216;5.624;2022-08-01T10:18:30;9.68;;;2.33;;
53875;SDS011;39789;53.216;5.624;2022-08-01T10:20:59;4.78;;;1.55;;
53875;SDS011;39789;53.216;5.624;2022-08-01T10:23:27;6.75;;;1.75;;
53875;SDS011;39789;53.216;5.624;2022-08-01T10:25:58;3.30;;;1.40;;
53875;SDS011;39789;53.216;5.624;2022-08-01T10:28:26;6.32;;;3.10;;
53875;SDS011;39789;53.216;5.624;2022-08-01T10:30:59;3.70;;;1.30;;
53875;SDS011;39789;53.216;5.624;2022-08-01T10:33:25;4.88;;;1.60;;
53875;SDS011;39789;53.216;5.624;2022-08-01T10:35:51;5.60;;;2.15;;
53875;SDS011;39789;53.216;5.624;2022-08-01T10:38:16;7.68;;;2.05;;
53875;SDS011;39789;53.216;5.624;2022-08-01T10:40:42;4.82;;;2.15;;
53875;SDS011;39789;53.216;5.624;2022-08-01T10:43:09;5.63;;;1.70;;
53875;SDS011;39789;53.216;5.624;2022-08-01T10:45:35;10.05;;;1.67;;
53875;SDS011;39789;53.216;5.624;2022-08-01T10:48:09;5.25;;;1.50;;
53875;SDS011;39789;53.216;5.624;2022-08-01T10:50:42;4.60;;;1.58;;
53875;SDS011;39789;53.216;5.624;2022-08-01T10:53:12;3.65;;;2.00;;
53875;SDS011;39789;53.216;5.624;2022-08-01T10:58:25;3.33;;;1.20;;
53875;SDS011;39789;53.216;5.624;2022-08-01T11:01:13;6.97;;;1.83;;
53875;SDS011;39789;53.216;5.624;2022-08-01T11:03:41;6.60;;;1.60;;
53875;SDS011;39789;53.216;5.624;2022-08-01T11:09:58;4.43;;;1.50;;
53875;SDS011;39789;53.216;5.624;2022-08-01T11:12:46;6.20;;;2.17;;
53875;SDS011;39789;53.216;5.624;2022-08-01T11:17:41;3.97;;;1.33;;
53875;SDS011;39789;53.216;5.624;2022-08-01T11:20:18;3.42;;;1.42;;
53875;SDS011;39789;53.216;5.624;2022-08-01T11:25:25;7.22;;;1.58;;
53875;SDS011;39789;53.216;5.624;2022-08-01T11:33:13;3.97;;;1.73;;
53875;SDS011;39789;53.216;5.624;2022-08-01T11:38:42;4.07;;;1.83;;
53875;SDS011;39789;53.216;5.624;2022-08-01T11:41:33;6.68;;;1.77;;
53875;SDS011;39789;53.216;5.624;2022-08-01T11:49:22;4.60;;;1.77;;
53875;SDS011;39789;53.216;5.624;2022-08-01T11:52:10;5.50;;;1.40;;
53875;SDS011;39789;53.216;5.624;2022-08-01T11:57:20;5.68;;;1.65;;
53875;SDS011;39789;53.216;5.624;2022-08-01T11:59:48;4.03;;;1.73;;
53875;SDS011;39789;53.216;5.624;2022-08-01T12:02:18;2.95;;;1.40;;
53875;SDS011;39789;53.216;5.624;2022-08-01T12:07:35;6.00;;;1.52;;
53875;SDS011;39789;53.216;5.624;2022-08-01T12:10:04;2.58;;;1.35;;
53875;SDS011;39789;53.216;5.624;2022-08-01T12:12:32;4.10;;;1.13;;
53875;SDS011;39789;53.216;5.624;2022-08-01T12:15:00;5.63;;;1.35;;
53875;SDS011;39789;53.216;5.624;2022-08-01T12:17:31;8.70;;;1.98;;
53875;SDS011;39789;53.216;5.624;2022-08-01T12:19:59;4.05;;;1.45;;
53875;SDS011;39789;53.216;5.624;2022-08-01T12:22:25;6.90;;;1.92;;
53875;SDS011;39789;53.216;5.624;2022-08-01T12:24:51;6.05;;;2.08;;
53875;SDS011;39789;53.216;5.624;2022-08-01T12:27:28;7.75;;;1.40;;
53875;SDS011;39789;53.216;5.624;2022-08-01T12:29:55;4.97;;;1.95;;
53875;SDS011;39789;53.216;5.624;2022-08-01T12:32:23;4.05;;;1.33;;
53875;SDS011;39789;53.216;5.624;2022-08-01T12:37:26;4.70;;;1.42;;
53875;SDS011;39789;53.216;5.624;2022-08-01T12:39:52;5.22;;;1.60;;
53875;SDS011;39789;53.216;5.624;2022-08-01T12:42:19;5.65;;;1.42;;
53875;SDS011;39789;53.216;5.624;2022-08-01T12:44:46;5.55;;;1.25;;
53875;SDS011;39789;53.216;5.624;2022-08-01T12:47:16;3.25;;;1.50;;
53875;SDS011;39789;53.216;5.624;2022-08-01T12:49:43;3.00;;;1.90;;
53875;SDS011;39789;53.216;5.624;2022-08-01T12:52:10;3.20;;;1.83;;
53875;SDS011;39789;53.216;5.624;2022-08-01T12:54:59;4.43;;;1.48;;
53875;SDS011;39789;53.216;5.624;2022-08-01T12:57:43;4.95;;;1.98;;
53875;SDS011;39789;53.216;5.624;2022-08-01T13:02:42;3.88;;;1.55;;
53875;SDS011;39789;53.216;5.624;2022-08-01T13:05:08;4.13;;;1.60;;
53875;SDS011;39789;53.216;5.624;2022-08-01T13:07:39;4.20;;;1.45;;
53875;SDS011;39789;53.216;5.624;2022-08-01T13:10:07;4.82;;;1.40;;
53875;SDS011;39789;53.216;5.624;2022-08-01T13:12:34;6.13;;;1.60;;
53875;SDS011;39789;53.216;5.624;2022-08-01T13:15:13;4.13;;;1.50;;
53875;SDS011;39789;53.216;5.624;2022-08-01T13:17:42;15.20;;;2.97;;
53875;SDS011;39789;53.216;5.624;2022-08-01T13:20:08;5.22;;;1.55;;
53875;SDS011;39789;53.216;5.624;2022-08-01T13:22:34;4.40;;;1.73;;
53875;SDS011;39789;53.216;5.624;2022-08-01T13:25:10;4.07;;;1.65;;
53875;SDS011;39789;53.216;5.624;2022-08-01T13:27:42;6.00;;;1.45;;
53875;SDS011;39789;53.216;5.624;2022-08-01T13:30:12;8.25;;;2.20;;
53875;SDS011;39789;53.216;5.624;2022-08-01T13:32:39;3.97;;;1.55;;
53875;SDS011;39789;53.216;5.624;2022-08-01T13:35:06;4.35;;;1.90;;
53875;SDS011;39789;53.216;5.624;2022-08-01T13:37:33;10.15;;;1.90;;
53875;SDS011;39789;53.216;5.624;2022-08-01T13:39:59;5.95;;;1.70;;
53875;SDS011;39789;53.216;5.624;2022-08-01T13:42:24;5.00;;;2.13;;
53875;SDS011;39789;53.216;5.624;2022-08-01T13:44:50;3.50;;;1.33;;
53875;SDS011;39789;53.216;5.624;2022-08-01T13:47:16;10.13;;;2.08;;
53875;SDS011;39789;53.216;5.624;2022-08-01T13:49:41;4.80;;;1.77;;
53875;SDS011;39789;53.216;5.624;2022-08-01T13:52:07;6.60;;;1.73;;
53875;SDS011;39789;53.216;5.624;2022-08-01T13:54:33;5.10;;;1.92;;
53875;SDS011;39789;53.216;5.624;2022-08-01T13:56:58;4.05;;;1.30;;
53875;SDS011;39789;53.216;5.624;2022-08-01T13:59:24;13.13;;;2.38;;
53875;SDS011;39789;53.216;5.624;2022-08-01T14:01:50;5.38;;;1.90;;
53875;SDS011;39789;53.216;5.624;2022-08-01T14:04:16;2.33;;;1.30;;
53875;SDS011;39789;53.216;5.624;2022-08-01T14:06:41;4.43;;;1.58;;
53875;SDS011;39789;53.216;5.624;2022-08-01T14:09:07;5.75;;;2.17;;
53875;SDS011;39789;53.216;5.624;2022-08-01T14:11:33;5.82;;;1.63;;
53875;SDS011;39789;53.216;5.624;2022-08-01T14:13:58;6.03;;;1.80;;
53875;SDS011;39789;53.216;5.624;2022-08-01T14:16:24;6.00;;;2.03;;
53875;SDS011;39789;53.216;5.624;2022-08-01T14:18:49;5.00;;;1.60;;
53875;SDS011;39789;53.216;5.624;2022-08-01T14:21:15;10.68;;;1.98;;
53875;SDS011;39789;53.216;5.624;2022-08-01T14:23:41;3.75;;;1.50;;
53875;SDS011;39789;53.216;5.624;2022-08-01T14:26:09;4.57;;;1.50;;
53875;SDS011;39789;53.216;5.624;2022-08-01T14:28:35;3.38;;;1.63;;
53875;SDS011;39789;53.216;5.624;2022-08-01T14:31:01;3.05;;;1.23;;
53875;SDS011;39789;53.216;5.624;2022-08-01T14:33:27;3.40;;;1.45;;
53875;SDS011;39789;53.216;5.624;2022-08-01T14:35:55;5.38;;;1.50;;
53875;SDS011;39789;53.216;5.624;2022-08-01T14:38:21;5.53;;;1.67;;
53875;SDS011;39789;53.216;5.624;2022-08-01T14:40:46;3.90;;;1.20;;
53875;SDS011;39789;53.216;5.624;2022-08-01T14:43:16;4.78;;;2.10;;
53875;SDS011;39789;53.216;5.624;2022-08-01T14:45:45;5.15;;;1.60;;
53875;SDS011;39789;53.216;5.624;2022-08-01T14:51:55;6.45;;;1.40;;
53875;SDS011;39789;53.216;5.624;2022-08-01T14:54:20;3.90;;;1.33;;
53875;SDS011;39789;53.216;5.624;2022-08-01T14:56:46;3.42;;;1.30;;
53875;SDS011;39789;53.216;5.624;2022-08-01T14:59:12;4.13;;;1.88;;
53875;SDS011;39789;53.216;5.624;2022-08-01T15:01:37;1.48;;;1.08;;
53875;SDS011;39789;53.216;5.624;2022-08-01T15:04:03;5.18;;;1.27;;
53875;SDS011;39789;53.216;5.624;2022-08-01T15:06:28;3.40;;;1.40;;
53875;SDS011;39789;53.216;5.624;2022-08-01T15:08:54;3.80;;;1.38;;
53875;SDS011;39789;53.216;5.624;2022-08-01T15:11:20;3.30;;;1.52;;
53875;SDS011;39789;53.216;5.624;2022-08-01T15:13:45;7.07;;;1.60;;
53875;SDS011;39789;53.216;5.624;2022-08-01T15:16:31;5.57;;;1.60;;
53875;SDS011;39789;53.216;5.624;2022-08-01T15:18:57;5.18;;;1.50;;
53875;SDS011;39789;53.216;5.624;2022-08-01T15:21:22;5.80;;;1.60;;
53875;SDS011;39789;53.216;5.624;2022-08-01T15:23:48;5.82;;;2.35;;
53875;SDS011;39789;53.216;5.624;2022-08-01T15:26:13;4.07;;;1.55;;
53875;SDS011;39789;53.216;5.624;2022-08-01T15:28:41;2.55;;;1.17;;
53875;SDS011;39789;53.216;5.624;2022-08-01T15:31:07;7.97;;;1.67;;
53875;SDS011;39789;53.216;5.624;2022-08-01T15:33:32;3.97;;;1.73;;
53875;SDS011;39789;53.216;5.624;2022-08-01T15:35:58;5.63;;;1.50;;
53875;SDS011;39789;53.216;5.624;2022-08-01T15:38:23;2.38;;;1.33;;
53875;SDS011;39789;53.216;5.624;2022-08-01T15:40:49;6.25;;;1.83;;
53875;SDS011;39789;53.216;5.624;2022-08-01T15:43:14;5.20;;;1.58;;
53875;SDS011;39789;53.216;5.624;2022-08-01T15:45:40;5.78;;;1.60;;
53875;SDS011;39789;53.216;5.624;2022-08-01T15:48:06;3.88;;;1.33;;
53875;SDS011;39789;53.216;5.624;2022-08-01T15:50:31;5.07;;;1.58;;
53875;SDS011;39789;53.216;5.624;2022-08-01T15:52:58;2.78;;;1.20;;